createdAt,value
2023-02-09T00:00:10.985Z,77.66
2023-02-09T00:01:10.970Z,77.87
2023-02-09T00:02:11.015Z,78.08
2023-02-09T00:03:11.077Z,77.98
2023-02-09T00:04:10.938Z,77.98
2023-02-09T00:05:10.921Z,78.08
2023-02-09T00:06:10.911Z,78.08
2023-02-09T00:07:10.901Z,77.87
2023-02-09T00:08:10.899Z,77.52
2023-02-09T00:09:10.878Z,77.31
2023-02-09T00:10:10.875Z,77.10
2023-02-09T00:11:10.859Z,76.54
2023-02-09T00:12:10.856Z,76.12
2023-02-09T00:13:10.841Z,75.70
2023-02-09T00:14:10.835Z,75.60
2023-02-09T00:15:10.807Z,75.60
2023-02-09T00:16:10.817Z,75.56
2023-02-09T00:17:10.781Z,75.49
2023-02-09T00:18:10.781Z,75.60
2023-02-09T00:19:10.757Z,75.60
2023-02-09T00:20:10.734Z,75.60
2023-02-09T00:21:10.747Z,75.70
2023-02-09T00:22:10.723Z,75.70
2023-02-09T00:23:10.718Z,75.92
2023-02-09T00:24:10.863Z,76.02
2023-02-09T00:25:10.680Z,76.23
2023-02-09T00:26:10.681Z,76.57
2023-02-09T00:27:10.655Z,77.34
2023-02-09T00:28:10.696Z,77.91
2023-02-09T00:29:10.638Z,78.22
2023-02-09T00:30:10.639Z,78.64
2023-02-09T00:31:10.703Z,78.99
2023-02-09T00:32:10.670Z,79.73
2023-02-09T00:33:10.601Z,79.87
2023-02-09T00:34:10.564Z,80.18
2023-02-09T00:35:10.554Z,79.97
2023-02-09T00:36:10.543Z,79.77
2023-02-09T00:37:10.529Z,79.66
2023-02-09T00:38:10.535Z,79.77
2023-02-09T00:39:10.521Z,80.08
2023-02-09T00:40:10.493Z,80.18
2023-02-09T00:41:10.476Z,80.75
2023-02-09T00:42:10.485Z,81.38
2023-02-09T00:43:10.473Z,81.45
2023-02-09T00:44:10.451Z,81.27
2023-02-09T00:45:10.428Z,81.16
2023-02-09T00:46:10.498Z,81.16
2023-02-09T00:47:10.417Z,81.70
2023-02-09T00:48:10.406Z,82.04
2023-02-09T00:49:10.388Z,82.46
2023-02-09T00:50:10.368Z,82.68
2023-02-09T00:51:10.360Z,82.46
2023-02-09T00:52:10.345Z,83.10
2023-02-09T00:53:10.349Z,83.73
2023-02-09T00:54:10.323Z,83.62
2023-02-09T00:55:10.302Z,83.62
2023-02-09T00:56:10.289Z,83.27
2023-02-09T00:57:10.289Z,83.10
2023-02-09T00:58:10.305Z,83.17
2023-02-09T00:59:10.254Z,82.85
2023-02-09T01:00:10.243Z,82.53
2023-02-09T01:01:10.259Z,82.53
2023-02-09T01:02:10.235Z,82.53
2023-02-09T01:03:10.207Z,82.46
2023-02-09T01:04:10.206Z,82.78
2023-02-09T01:05:10.176Z,83.20
2023-02-09T01:06:10.159Z,83.83
2023-02-09T01:07:10.150Z,83.83
2023-02-09T01:08:10.138Z,83.98
2023-02-09T01:09:10.142Z,84.05
2023-02-09T01:10:10.111Z,83.83
2023-02-09T01:11:10.096Z,83.76
2023-02-09T01:12:10.086Z,83.62
2023-02-09T01:13:10.099Z,83.56
2023-02-09T01:14:10.082Z,83.56
2023-02-09T01:15:10.056Z,83.56
2023-02-09T01:16:10.036Z,83.66
2023-02-09T01:17:10.100Z,83.66
2023-02-09T01:18:10.034Z,83.98
2023-02-09T01:19:10.014Z,84.29
2023-02-09T01:20:09.983Z,84.65
2023-02-09T01:21:09.977Z,84.75
2023-02-09T01:22:09.974Z,84.86
2023-02-09T01:23:09.951Z,84.96
2023-02-09T01:24:09.952Z,84.96
2023-02-09T01:25:09.932Z,84.96
2023-02-09T01:26:09.909Z,84.75
2023-02-09T01:27:09.901Z,84.75
2023-02-09T01:28:09.918Z,85.07
2023-02-09T01:29:09.892Z,85.60
2023-02-09T01:30:09.891Z,85.80
2023-02-09T01:31:09.994Z,86.22
2023-02-09T01:32:09.854Z,85.91
2023-02-09T01:33:09.831Z,85.49
2023-02-09T01:34:09.850Z,85.70
2023-02-09T01:35:09.810Z,85.70
2023-02-09T01:36:09.784Z,85.70
2023-02-09T01:37:09.773Z,85.38
2023-02-09T01:38:09.767Z,85.38
2023-02-09T01:39:09.780Z,85.80
2023-02-09T01:40:09.740Z,85.80
2023-02-09T01:41:09.730Z,85.60
2023-02-09T01:42:09.718Z,85.38
2023-02-09T01:43:09.701Z,85.38
2023-02-09T01:44:09.721Z,85.17
2023-02-09T01:45:09.679Z,84.96
2023-02-09T01:46:09.726Z,85.53
2023-02-09T01:47:09.653Z,85.85
2023-02-09T01:48:09.649Z,85.85
2023-02-09T01:49:09.642Z,85.85
2023-02-09T01:50:09.630Z,85.85
2023-02-09T01:51:09.603Z,86.16
2023-02-09T01:52:09.594Z,86.27
2023-02-09T01:53:09.579Z,86.27
2023-02-09T01:54:09.652Z,86.69
2023-02-09T01:55:09.553Z,87.11
2023-02-09T01:56:09.538Z,87.11
2023-02-09T01:57:09.532Z,87.00
2023-02-09T01:58:09.511Z,86.79
2023-02-09T01:59:09.528Z,87.74
2023-02-09T02:00:09.525Z,87.68
2023-02-09T02:01:09.544Z,87.21
2023-02-09T02:02:09.521Z,87.15
2023-02-09T02:03:09.452Z,87.46
2023-02-09T02:04:09.440Z,87.57
2023-02-09T02:05:09.441Z,87.82
2023-02-09T02:06:09.439Z,88.03
2023-02-09T02:07:09.413Z,88.45
2023-02-09T02:08:09.391Z,88.77
2023-02-09T02:09:09.379Z,88.66
2023-02-09T02:10:09.376Z,88.56
2023-02-09T02:11:09.361Z,88.35
2023-02-09T02:12:09.341Z,88.35
2023-02-09T02:13:09.334Z,88.24
2023-02-09T02:14:09.320Z,88.03
2023-02-09T02:15:09.314Z,88.03
2023-02-09T02:16:09.295Z,88.03
2023-02-09T02:17:09.279Z,88.24
2023-02-09T02:18:09.260Z,88.39
2023-02-09T02:19:09.253Z,88.70
2023-02-09T02:20:09.250Z,89.34
2023-02-09T02:21:09.228Z,90.70
2023-02-09T02:22:09.235Z,91.24
2023-02-09T02:23:09.202Z,91.24
2023-02-09T02:24:09.184Z,91.24
2023-02-09T02:25:09.192Z,91.34
2023-02-09T02:26:09.161Z,91.24
2023-02-09T02:27:09.156Z,91.02
2023-02-09T02:28:09.207Z,90.92
2023-02-09T02:29:09.124Z,90.81
2023-02-09T02:30:09.131Z,90.56
2023-02-09T02:31:09.287Z,90.03
2023-02-09T02:32:09.087Z,89.68
2023-02-09T02:33:09.080Z,89.15
2023-02-09T02:34:09.067Z,88.83
2023-02-09T02:35:09.079Z,88.48
2023-02-09T02:36:09.037Z,88.06
2023-02-09T02:37:09.066Z,87.63
2023-02-09T02:38:09.034Z,87.42
2023-02-09T02:39:09.006Z,87.32
2023-02-09T02:40:09.000Z,87.18
2023-02-09T02:41:08.977Z,86.96
2023-02-09T02:42:08.959Z,86.86
2023-02-09T02:43:08.958Z,86.96
2023-02-09T02:44:08.938Z,87.18
2023-02-09T02:45:08.942Z,87.07
2023-02-09T02:46:08.979Z,86.86
2023-02-09T02:47:08.907Z,86.54
2023-02-09T02:48:08.891Z,86.44
2023-02-09T02:49:08.889Z,86.44
2023-02-09T02:50:08.883Z,86.19
2023-02-09T02:51:08.945Z,85.97
2023-02-09T02:52:08.845Z,85.77
2023-02-09T02:53:08.846Z,85.80
2023-02-09T02:54:08.839Z,85.97
2023-02-09T02:55:08.831Z,85.77
2023-02-09T02:56:08.794Z,85.55
2023-02-09T02:57:08.782Z,85.70
2023-02-09T02:58:08.765Z,85.70
2023-02-09T02:59:08.775Z,85.70
2023-02-09T03:00:08.809Z,86.02
2023-02-09T03:01:08.737Z,86.33
2023-02-09T03:02:08.719Z,86.65
2023-02-09T03:03:08.713Z,86.76
2023-02-09T03:04:08.708Z,86.90
2023-02-09T03:05:08.712Z,87.00
2023-02-09T03:06:08.682Z,86.90
2023-02-09T03:07:08.658Z,86.79
2023-02-09T03:08:08.652Z,86.58
2023-02-09T03:09:08.634Z,86.37
2023-02-09T03:10:08.643Z,86.27
2023-02-09T03:11:08.633Z,86.27
2023-02-09T03:12:08.596Z,86.37
2023-02-09T03:13:08.585Z,86.37
2023-02-09T03:14:08.594Z,86.47
2023-02-09T03:15:08.564Z,86.37
2023-02-09T03:16:08.629Z,86.27
2023-02-09T03:17:08.541Z,86.20
2023-02-09T03:18:08.525Z,86.20
2023-02-09T03:19:08.511Z,87.15
2023-02-09T03:20:08.511Z,87.46
2023-02-09T03:21:08.502Z,87.78
2023-02-09T03:22:08.475Z,87.88
2023-02-09T03:23:08.457Z,87.68
2023-02-09T03:24:08.458Z,87.46
2023-02-09T03:25:08.438Z,87.15
2023-02-09T03:26:08.468Z,86.94
2023-02-09T03:27:08.415Z,87.29
2023-02-09T03:28:08.506Z,87.61
2023-02-09T03:29:08.389Z,87.71
2023-02-09T03:30:08.374Z,88.03
2023-02-09T03:31:08.531Z,88.13
2023-02-09T03:32:08.360Z,88.35
2023-02-09T03:33:10.592Z,88.66
2023-02-09T03:34:08.322Z,88.77
2023-02-09T03:35:08.311Z,88.77
2023-02-09T03:36:08.314Z,88.60
2023-02-09T03:37:08.285Z,88.70
2023-02-09T03:38:08.290Z,88.66
2023-02-09T03:39:08.273Z,88.77
2023-02-09T03:40:08.246Z,88.56
2023-02-09T03:41:08.252Z,88.10
2023-02-09T03:42:08.244Z,87.68
2023-02-09T03:43:08.213Z,87.46
2023-02-09T03:44:08.196Z,87.00
2023-02-09T03:45:08.202Z,86.27
2023-02-09T03:46:08.208Z,85.38
2023-02-09T03:47:08.193Z,84.61
2023-02-09T03:48:08.145Z,84.19
2023-02-09T03:49:08.138Z,83.76
2023-02-09T03:50:08.127Z,83.56
2023-02-09T03:51:08.127Z,83.24
2023-02-09T03:52:08.108Z,83.14
2023-02-09T03:53:08.088Z,83.70
2023-02-09T03:54:08.096Z,84.05
2023-02-09T03:55:08.081Z,84.79
2023-02-09T03:56:08.066Z,85.67
2023-02-09T03:57:08.053Z,86.20
2023-02-09T03:58:08.047Z,86.10
2023-02-09T03:59:08.029Z,87.08
2023-02-09T04:00:07.994Z,87.50
2023-02-09T04:01:08.097Z,87.29
2023-02-09T04:02:08.029Z,86.91
2023-02-09T04:03:07.959Z,87.23
2023-02-09T04:04:07.945Z,88.43
2023-02-09T04:05:07.937Z,89.20
2023-02-09T04:06:07.944Z,90.16
2023-02-09T04:07:07.910Z,90.01
2023-02-09T04:08:07.898Z,90.64
2023-02-09T04:09:07.901Z,90.64
2023-02-09T04:10:07.891Z,88.94
2023-02-09T04:11:07.887Z,87.21
2023-02-09T04:12:07.883Z,86.02
2023-02-09T04:13:07.836Z,85.17
2023-02-09T04:14:07.841Z,84.61
2023-02-09T04:15:07.805Z,84.19
2023-02-09T04:16:07.867Z,83.87
2023-02-09T04:17:07.810Z,83.66
2023-02-09T04:18:07.773Z,83.49
2023-02-09T04:19:07.764Z,84.05
2023-02-09T04:20:07.771Z,84.47
2023-02-09T04:21:07.738Z,85.14
2023-02-09T04:22:07.736Z,85.74
2023-02-09T04:23:07.709Z,85.60
2023-02-09T04:24:07.699Z,85.21
2023-02-09T04:25:07.685Z,85.00
2023-02-09T04:26:07.678Z,84.79
2023-02-09T04:27:07.704Z,84.37
2023-02-09T04:28:07.673Z,84.37
2023-02-09T04:29:07.631Z,84.37
2023-02-09T04:30:07.653Z,84.58
2023-02-09T04:31:07.701Z,84.69
2023-02-09T04:32:07.775Z,85.00
2023-02-09T04:33:07.582Z,85.46
2023-02-09T04:34:07.575Z,85.88
2023-02-09T04:35:07.567Z,86.03
2023-02-09T04:36:07.547Z,86.03
2023-02-09T04:37:07.554Z,86.59
2023-02-09T04:38:07.525Z,86.70
2023-02-09T04:39:07.517Z,86.91
2023-02-09T04:40:07.887Z,87.33
2023-02-09T04:41:07.490Z,88.21
2023-02-09T04:42:07.490Z,89.10
2023-02-09T04:43:07.462Z,89.63
2023-02-09T04:44:07.460Z,90.37
2023-02-09T04:45:07.451Z,90.58
2023-02-09T04:46:07.522Z,90.72
2023-02-09T04:47:07.434Z,90.83
2023-02-09T04:48:07.404Z,91.14
2023-02-09T04:49:07.387Z,91.25
2023-02-09T04:50:07.380Z,91.36
2023-02-09T04:51:07.365Z,92.10
2023-02-09T04:52:07.371Z,92.35
2023-02-09T04:53:07.336Z,93.62
2023-02-09T04:54:07.331Z,94.04
2023-02-09T04:55:07.323Z,94.40
2023-02-09T04:56:07.312Z,94.29
2023-02-09T04:57:07.304Z,93.98
2023-02-09T04:58:07.280Z,93.66
2023-02-09T04:59:07.276Z,93.98
2023-02-09T05:00:07.255Z,94.51
2023-02-09T05:01:07.335Z,94.72
2023-02-09T05:02:07.265Z,94.87
2023-02-09T05:03:07.263Z,94.97
2023-02-09T05:04:07.207Z,95.29
2023-02-09T05:05:07.191Z,96.03
2023-02-09T05:06:07.195Z,96.24
2023-02-09T05:07:07.184Z,96.60
2023-02-09T05:08:07.161Z,97.03
2023-02-09T05:09:07.151Z,97.24
2023-02-09T05:10:07.132Z,97.30
2023-02-09T05:11:07.122Z,97.19
2023-02-09T05:12:07.133Z,96.98
2023-02-09T05:13:07.114Z,96.77
2023-02-09T05:14:07.082Z,96.98
2023-02-09T05:15:07.072Z,96.98
2023-02-09T05:16:07.120Z,97.30
2023-02-09T05:17:07.065Z,97.36
2023-02-09T05:18:07.050Z,97.47
2023-02-09T05:19:07.021Z,97.36
2023-02-09T05:20:07.007Z,96.89
2023-02-09T05:21:07.000Z,96.37
2023-02-09T05:22:07.005Z,95.79
2023-02-09T05:23:06.976Z,94.53
2023-02-09T05:24:06.963Z,94.04
2023-02-09T05:25:06.947Z,93.83
2023-02-09T05:26:06.949Z,93.51
2023-02-09T05:27:06.949Z,93.30
2023-02-09T05:28:06.987Z,93.09
2023-02-09T05:29:06.911Z,92.88
2023-02-09T05:30:06.894Z,93.02
2023-02-09T05:31:06.926Z,93.55
2023-02-09T05:32:06.923Z,93.87
2023-02-09T05:33:06.881Z,93.98
2023-02-09T05:34:06.858Z,94.09
2023-02-09T05:35:08.396Z,94.09
2023-02-09T05:36:06.812Z,94.19
2023-02-09T05:37:06.803Z,94.19
2023-02-09T05:38:06.799Z,94.04
2023-02-09T05:39:06.773Z,93.51
2023-02-09T05:40:06.764Z,93.30
2023-02-09T05:41:06.752Z,92.83
2023-02-09T05:42:06.743Z,92.52
2023-02-09T05:43:06.741Z,91.85
2023-02-09T05:44:06.732Z,91.42
2023-02-09T05:45:06.698Z,91.11
2023-02-09T05:46:08.472Z,90.79
2023-02-09T05:47:06.676Z,90.47
2023-02-09T05:48:06.681Z,90.58
2023-02-09T05:49:06.656Z,90.79
2023-02-09T05:50:06.663Z,90.37
2023-02-09T05:51:06.630Z,90.26
2023-02-09T05:52:06.617Z,90.37
2023-02-09T05:53:06.617Z,90.05
2023-02-09T05:54:06.599Z,89.67
2023-02-09T05:55:06.578Z,89.88
2023-02-09T05:56:06.566Z,90.20
2023-02-09T05:57:06.547Z,90.62
2023-02-09T05:58:06.550Z,90.94
2023-02-09T05:59:06.542Z,91.30
2023-02-09T06:00:06.527Z,91.19
2023-02-09T06:01:06.510Z,91.08
2023-02-09T06:02:06.532Z,90.98
2023-02-09T06:03:06.591Z,90.87
2023-02-09T06:04:06.482Z,90.91
2023-02-09T06:05:06.458Z,91.13
2023-02-09T06:06:06.457Z,91.55
2023-02-09T06:07:06.421Z,91.44
2023-02-09T06:08:06.432Z,91.76
2023-02-09T06:09:06.402Z,92.07
2023-02-09T06:10:06.391Z,92.65
2023-02-09T06:11:06.371Z,92.96
2023-02-09T06:12:06.361Z,92.96
2023-02-09T06:13:06.368Z,93.07
2023-02-09T06:14:06.341Z,93.60
2023-02-09T06:15:06.330Z,93.60
2023-02-09T06:16:06.384Z,93.70
2023-02-09T06:17:06.303Z,93.91
2023-02-09T06:18:06.306Z,93.81
2023-02-09T06:19:06.277Z,93.70
2023-02-09T06:20:06.280Z,93.70
2023-02-09T06:21:06.250Z,93.70
2023-02-09T06:22:06.267Z,93.70
2023-02-09T06:23:06.238Z,93.81
2023-02-09T06:24:06.222Z,93.91
2023-02-09T06:25:06.243Z,93.81
2023-02-09T06:26:06.195Z,93.91
2023-02-09T06:27:06.173Z,94.13
2023-02-09T06:28:06.245Z,94.13
2023-02-09T06:29:06.162Z,94.13
2023-02-09T06:30:06.185Z,93.81
2023-02-09T06:31:06.253Z,93.70
2023-02-09T06:32:06.268Z,93.81
2023-02-09T06:33:06.116Z,93.81
2023-02-09T06:34:06.091Z,93.91
2023-02-09T06:35:06.097Z,94.02
2023-02-09T06:36:06.073Z,94.23
2023-02-09T06:37:06.071Z,94.65
2023-02-09T06:38:06.090Z,94.76
2023-02-09T06:39:06.061Z,94.76
2023-02-09T06:40:06.035Z,94.87
2023-02-09T06:41:06.006Z,94.65
2023-02-09T06:42:06.009Z,94.34
2023-02-09T06:43:05.983Z,94.02
2023-02-09T06:44:05.993Z,93.70
2023-02-09T06:45:05.959Z,93.81
2023-02-09T06:46:06.002Z,93.81
2023-02-09T06:47:05.933Z,93.49
2023-02-09T06:48:05.924Z,93.28
2023-02-09T06:49:05.972Z,93.38
2023-02-09T06:50:05.900Z,93.60
2023-02-09T06:51:05.886Z,94.55
2023-02-09T06:52:05.878Z,94.65
2023-02-09T06:53:05.865Z,94.65
2023-02-09T06:54:05.882Z,94.45
2023-02-09T06:55:05.836Z,94.45
2023-02-09T06:56:05.828Z,94.34
2023-02-09T06:57:05.810Z,94.34
2023-02-09T06:58:05.815Z,94.23
2023-02-09T06:59:05.809Z,94.65
2023-02-09T07:00:05.777Z,94.65
2023-02-09T07:01:05.771Z,94.97
2023-02-09T07:02:05.890Z,95.29
2023-02-09T07:03:05.835Z,95.50
2023-02-09T07:04:05.750Z,95.39
2023-02-09T07:05:05.714Z,95.18
2023-02-09T07:06:05.700Z,95.18
2023-02-09T07:07:05.687Z,95.18
2023-02-09T07:08:05.679Z,95.18
2023-02-09T07:09:05.675Z,95.29
2023-02-09T07:10:05.701Z,95.29
2023-02-09T07:11:05.642Z,95.39
2023-02-09T07:12:05.628Z,95.50
2023-02-09T07:13:05.641Z,95.39
2023-02-09T07:14:05.626Z,95.18
2023-02-09T07:15:05.590Z,95.07
2023-02-09T07:16:05.627Z,94.87
2023-02-09T07:17:05.560Z,94.51
2023-02-09T07:18:05.559Z,94.61
2023-02-09T07:19:05.564Z,94.82
2023-02-09T07:20:05.529Z,94.61
2023-02-09T07:21:05.526Z,94.36
2023-02-09T07:22:05.502Z,94.04
2023-02-09T07:23:05.496Z,93.62
2023-02-09T07:24:05.515Z,93.57
2023-02-09T07:25:05.468Z,93.37
2023-02-09T07:26:05.478Z,92.94
2023-02-09T07:27:05.444Z,92.31
2023-02-09T07:28:05.451Z,92.10
2023-02-09T07:29:05.448Z,92.31
2023-02-09T07:30:05.408Z,92.31
2023-02-09T07:31:05.520Z,92.31
2023-02-09T07:32:05.474Z,92.41
2023-02-09T07:33:05.370Z,92.63
2023-02-09T07:34:05.375Z,92.83
2023-02-09T07:35:05.342Z,92.69
2023-02-09T07:36:05.336Z,92.69
2023-02-09T07:37:05.325Z,92.69
2023-02-09T07:38:05.305Z,93.01
2023-02-09T07:39:05.306Z,93.11
2023-02-09T07:40:05.286Z,93.32
2023-02-09T07:41:05.291Z,93.43
2023-02-09T07:42:05.271Z,93.54
2023-02-09T07:43:05.243Z,93.11
2023-02-09T07:44:05.253Z,93.18
2023-02-09T07:45:05.213Z,92.96
2023-02-09T07:46:05.216Z,92.71
2023-02-09T07:47:05.197Z,92.29
2023-02-09T07:48:05.177Z,92.08
2023-02-09T07:49:05.182Z,91.76
2023-02-09T07:50:05.154Z,92.22
2023-02-09T07:51:05.145Z,92.44
2023-02-09T07:52:05.127Z,92.29
2023-02-09T07:53:05.128Z,91.97
2023-02-09T07:54:07.300Z,91.66
2023-02-09T07:55:05.102Z,91.30
2023-02-09T07:56:05.087Z,91.09
2023-02-09T07:57:05.077Z,90.98
2023-02-09T07:58:05.073Z,90.73
2023-02-09T07:59:05.064Z,90.41
2023-02-09T08:00:05.039Z,90.31
2023-02-09T08:01:05.020Z,90.10
2023-02-09T08:02:05.791Z,90.06
2023-02-09T08:03:04.997Z,90.37
2023-02-09T08:04:05.002Z,90.37
2023-02-09T08:05:05.123Z,90.23
2023-02-09T08:06:04.962Z,90.12
2023-02-09T08:07:04.937Z,90.01
2023-02-09T08:08:04.936Z,89.81
2023-02-09T08:09:04.928Z,89.76
2023-02-09T08:10:04.908Z,89.76
2023-02-09T08:11:04.889Z,89.83
2023-02-09T08:12:04.960Z,89.62
2023-02-09T08:13:04.864Z,89.30
2023-02-09T08:14:04.889Z,89.05
2023-02-09T08:15:04.861Z,88.32
2023-02-09T08:16:04.948Z,87.79
2023-02-09T08:17:04.820Z,87.44
2023-02-09T08:18:04.807Z,87.23
2023-02-09T08:19:04.790Z,86.87
2023-02-09T08:20:04.798Z,86.06
2023-02-09T08:21:04.774Z,84.39
2023-02-09T08:22:04.754Z,81.18
2023-02-09T08:23:04.745Z,77.13
2023-02-09T08:24:04.733Z,72.72
2023-02-09T08:25:04.732Z,68.99
2023-02-09T08:26:04.708Z,65.75
2023-02-09T08:27:04.693Z,63.10
2023-02-09T08:28:04.767Z,61.05
2023-02-09T08:29:04.668Z,59.36
2023-02-09T08:30:04.688Z,57.84
2023-02-09T08:31:04.774Z,56.26
2023-02-09T08:32:04.702Z,55.72
2023-02-09T08:33:04.618Z,54.97
2023-02-09T08:34:04.606Z,54.12
2023-02-09T08:35:04.604Z,53.71
2023-02-09T08:36:04.573Z,53.50
2023-02-09T08:37:04.558Z,53.53
2023-02-09T08:38:04.546Z,53.22
2023-02-09T08:39:04.544Z,53.74
2023-02-09T08:40:04.534Z,52.78
2023-02-09T08:41:04.631Z,52.88
2023-02-09T08:42:04.513Z,52.66
2023-02-09T08:43:04.503Z,51.89
2023-02-09T08:44:04.469Z,51.45
2023-02-09T08:45:04.468Z,51.68
2023-02-09T08:46:04.587Z,51.26
2023-02-09T08:47:04.697Z,50.67
2023-02-09T08:48:04.421Z,51.00
2023-02-09T08:49:04.402Z,51.31
2023-02-09T08:50:04.410Z,51.62
2023-02-09T08:51:04.381Z,51.52
2023-02-09T08:52:04.376Z,51.73
2023-02-09T08:53:04.353Z,51.37
2023-02-09T08:54:04.340Z,51.52
2023-02-09T08:55:04.341Z,51.78
2023-02-09T08:56:04.320Z,51.47
2023-02-09T08:57:04.320Z,50.70
2023-02-09T08:58:04.285Z,49.96
2023-02-09T08:59:04.272Z,49.24
2023-02-09T09:00:04.271Z,48.83
2023-02-09T09:01:04.273Z,49.14
2023-02-09T09:02:04.254Z,49.04
2023-02-09T09:03:04.216Z,49.43
2023-02-09T09:04:04.292Z,49.11
2023-02-09T09:05:04.219Z,48.58
2023-02-09T09:06:04.176Z,48.14
2023-02-09T09:07:04.165Z,48.47
2023-02-09T09:08:04.161Z,48.17
2023-02-09T09:09:04.154Z,47.74
2023-02-09T09:10:04.142Z,47.84
2023-02-09T09:11:04.113Z,48.07
2023-02-09T09:12:04.093Z,48.63
2023-02-09T09:13:04.092Z,47.99
2023-02-09T09:14:04.133Z,48.19
2023-02-09T09:15:04.074Z,48.21
2023-02-09T09:16:05.286Z,48.72
2023-02-09T09:17:04.032Z,48.39
2023-02-09T09:18:04.040Z,48.32
2023-02-09T09:19:04.010Z,48.32
2023-02-09T09:20:04.003Z,48.50
2023-02-09T09:21:03.983Z,48.42
2023-02-09T09:22:03.975Z,48.34
2023-02-09T09:23:03.953Z,48.63
2023-02-09T09:24:03.943Z,49.01
2023-02-09T09:25:03.943Z,47.94
2023-02-09T09:26:03.916Z,47.42
2023-02-09T09:27:03.902Z,47.42
2023-02-09T09:28:03.921Z,47.09
2023-02-09T09:29:03.874Z,47.61
2023-02-09T09:30:03.891Z,47.20
2023-02-09T09:31:03.894Z,46.69
2023-02-09T09:32:03.892Z,46.71
2023-02-09T09:33:03.966Z,47.34
2023-02-09T09:34:03.829Z,48.39
2023-02-09T09:35:03.798Z,48.01
2023-02-09T09:36:03.800Z,48.71
2023-02-09T09:37:03.774Z,48.07
2023-02-09T09:38:03.757Z,47.42
2023-02-09T09:39:03.742Z,47.09
2023-02-09T09:40:03.733Z,47.92
2023-02-09T09:41:03.735Z,47.53
2023-02-09T09:42:03.702Z,47.86
2023-02-09T09:43:03.695Z,47.96
2023-02-09T09:44:03.686Z,48.09
2023-02-09T09:45:03.664Z,49.11
2023-02-09T09:46:03.696Z,48.47
2023-02-09T09:47:03.645Z,49.05
2023-02-09T09:48:03.630Z,47.28
2023-02-09T09:49:03.610Z,47.55
2023-02-09T09:50:03.994Z,46.28
2023-02-09T09:51:03.599Z,46.30
2023-02-09T09:52:03.573Z,46.40
2023-02-09T09:53:03.562Z,47.24
2023-02-09T09:54:03.562Z,47.09
2023-02-09T09:55:03.534Z,46.61
2023-02-09T09:56:03.535Z,47.44
2023-02-09T09:57:03.511Z,48.63
2023-02-09T09:58:03.495Z,48.92
2023-02-09T09:59:03.490Z,49.77
2023-02-09T10:00:03.466Z,49.44
2023-02-09T10:01:03.497Z,49.25
2023-02-09T10:02:03.444Z,50.43
2023-02-09T10:03:03.448Z,50.97
2023-02-09T10:04:03.412Z,50.64
2023-02-09T10:05:03.400Z,50.33
2023-02-09T10:06:03.424Z,51.87
2023-02-09T10:07:03.378Z,53.00
2023-02-09T10:08:03.365Z,52.15
2023-02-09T10:09:03.345Z,51.18
2023-02-09T10:10:03.344Z,50.92
2023-02-09T10:11:03.343Z,49.08
2023-02-09T10:12:03.305Z,48.16
2023-02-09T10:13:03.315Z,47.33
2023-02-09T10:14:03.282Z,47.52
2023-02-09T10:15:03.270Z,47.62
2023-02-09T10:16:03.277Z,48.49
2023-02-09T10:17:03.293Z,48.92
2023-02-09T10:18:03.239Z,49.46
2023-02-09T10:19:03.214Z,49.62
2023-02-09T10:20:03.206Z,48.44
2023-02-09T10:21:03.194Z,47.19
2023-02-09T10:22:03.206Z,47.27
2023-02-09T10:23:03.172Z,49.22
2023-02-09T10:24:03.185Z,51.23
2023-02-09T10:25:03.164Z,51.68
2023-02-09T10:26:03.127Z,52.80
2023-02-09T10:27:03.137Z,51.49
2023-02-09T10:28:03.249Z,49.87
2023-02-09T10:29:03.082Z,49.77
2023-02-09T10:30:03.067Z,49.21
2023-02-09T10:31:03.182Z,49.62
2023-02-09T10:32:03.093Z,48.03
2023-02-09T10:33:03.031Z,48.71
2023-02-09T10:34:03.019Z,49.74
2023-02-09T10:35:03.004Z,48.92
2023-02-09T10:36:02.990Z,48.63
2023-02-09T10:37:02.988Z,49.43
2023-02-09T10:38:02.991Z,50.15
2023-02-09T10:39:02.955Z,50.99
2023-02-09T10:40:02.942Z,50.10
2023-02-09T10:41:02.923Z,49.84
2023-02-09T10:42:02.920Z,50.15
2023-02-09T10:43:02.898Z,51.07
2023-02-09T10:44:02.889Z,51.34
2023-02-09T10:45:02.871Z,49.87
2023-02-09T10:46:03.746Z,50.15
2023-02-09T10:47:03.857Z,50.62
2023-02-09T10:48:02.833Z,50.43
2023-02-09T10:49:02.817Z,50.10
2023-02-09T10:50:02.804Z,49.49
2023-02-09T10:51:02.796Z,47.96
2023-02-09T10:52:02.788Z,46.15
2023-02-09T10:53:02.763Z,45.25
2023-02-09T10:54:02.765Z,45.76
2023-02-09T10:55:02.743Z,44.98
2023-02-09T10:56:02.753Z,43.84
2023-02-09T10:57:02.740Z,43.49
2023-02-09T10:58:02.706Z,44.06
2023-02-09T10:59:02.697Z,47.09
2023-02-09T11:00:02.683Z,48.63
2023-02-09T11:01:02.708Z,48.24
2023-02-09T11:02:02.657Z,46.61
2023-02-09T11:03:02.636Z,45.84
2023-02-09T11:04:02.682Z,44.92
2023-02-09T11:05:02.616Z,45.97
2023-02-09T11:06:02.598Z,45.97
2023-02-09T11:07:02.595Z,45.93
2023-02-09T11:08:02.570Z,48.18
2023-02-09T11:09:02.557Z,48.29
2023-02-09T11:10:02.663Z,47.42
2023-02-09T11:11:02.537Z,47.53
2023-02-09T11:12:02.540Z,46.20
2023-02-09T11:13:02.510Z,46.56
2023-02-09T11:14:02.491Z,45.72
2023-02-09T11:15:02.482Z,45.70
2023-02-09T11:16:02.517Z,45.62
2023-02-09T11:17:02.467Z,45.09
2023-02-09T11:18:02.437Z,44.37
2023-02-09T11:19:02.428Z,44.47
2023-02-09T11:20:02.412Z,44.26
2023-02-09T11:21:02.400Z,44.06
2023-02-09T11:22:02.410Z,44.64
2023-02-09T11:23:02.380Z,45.62
2023-02-09T11:24:02.365Z,45.39
2023-02-09T11:25:02.361Z,45.29
2023-02-09T11:26:02.358Z,44.43
2023-02-09T11:27:02.343Z,44.10
2023-02-09T11:28:02.364Z,43.82
2023-02-09T11:29:02.294Z,44.14
2023-02-09T11:30:02.292Z,44.61
2023-02-09T11:31:02.426Z,43.82
2023-02-09T11:32:02.427Z,43.69
2023-02-09T11:33:02.247Z,43.28
2023-02-09T11:34:02.233Z,42.85
2023-02-09T11:35:02.225Z,42.65
2023-02-09T11:36:02.207Z,42.77
2023-02-09T11:37:02.215Z,42.94
2023-02-09T11:38:02.175Z,42.83
2023-02-09T11:39:02.165Z,43.35
2023-02-09T11:40:02.154Z,43.47
2023-02-09T11:41:02.140Z,43.57
2023-02-09T11:42:02.196Z,43.12
2023-02-09T11:43:02.117Z,42.41
2023-02-09T11:44:02.103Z,42.22
2023-02-09T11:45:02.084Z,42.61
2023-02-09T11:46:02.130Z,42.73
2023-02-09T11:47:02.066Z,42.22
2023-02-09T11:48:02.063Z,42.81
2023-02-09T11:49:02.041Z,42.20
2023-02-09T11:50:02.043Z,42.20
2023-02-09T11:51:02.028Z,42.71
2023-02-09T11:52:01.997Z,42.63
2023-02-09T11:53:02.000Z,42.91
2023-02-09T11:54:01.968Z,42.20
2023-02-09T11:55:01.973Z,41.65
2023-02-09T11:56:01.941Z,41.47
2023-02-09T11:57:01.932Z,41.67
2023-02-09T11:58:01.949Z,41.47
2023-02-09T11:59:01.912Z,41.44
2023-02-09T12:00:01.897Z,41.44
2023-02-09T12:01:14.734Z,41.12
2023-02-09T12:02:02.876Z,40.61
2023-02-09T12:03:01.962Z,40.81
2023-02-09T12:04:01.854Z,40.61
2023-02-09T12:05:01.834Z,40.08
2023-02-09T12:06:01.814Z,39.98
2023-02-09T12:07:01.809Z,40.44
2023-02-09T12:08:01.802Z,41.40
2023-02-09T12:09:01.795Z,42.03
2023-02-09T12:10:01.783Z,42.55
2023-02-09T12:11:01.764Z,42.10
2023-02-09T12:12:01.745Z,41.38
2023-02-09T12:13:01.742Z,41.61
2023-02-09T12:14:01.723Z,41.06
2023-02-09T12:15:01.703Z,40.95
2023-02-09T12:16:01.722Z,41.04
2023-02-09T12:17:01.665Z,40.63
2023-02-09T12:18:01.677Z,40.14
2023-02-09T12:19:01.652Z,41.06
2023-02-09T12:20:01.634Z,40.71
2023-02-09T12:21:01.613Z,40.08
2023-02-09T12:22:01.624Z,40.20
2023-02-09T12:23:01.601Z,39.90
2023-02-09T12:24:01.628Z,39.87
2023-02-09T12:25:01.565Z,40.45
2023-02-09T12:26:01.572Z,39.94
2023-02-09T12:27:01.581Z,39.43
2023-02-09T12:28:01.612Z,39.08
2023-02-09T12:29:01.546Z,39.10
2023-02-09T12:30:01.563Z,40.93
2023-02-09T12:31:01.650Z,42.32
2023-02-09T12:32:01.576Z,42.48
2023-02-09T12:33:01.465Z,41.49
2023-02-09T12:34:01.455Z,40.63
2023-02-09T12:35:01.428Z,41.12
2023-02-09T12:36:01.412Z,39.90
2023-02-09T12:37:01.404Z,40.19
2023-02-09T12:38:01.390Z,39.78
2023-02-09T12:39:05.231Z,40.00
2023-02-09T12:40:01.379Z,40.61
2023-02-09T12:41:01.351Z,40.57
2023-02-09T12:42:01.334Z,39.47
2023-02-09T12:43:01.322Z,39.98
2023-02-09T12:44:03.065Z,40.41
2023-02-09T12:45:01.301Z,40.30
2023-02-09T12:46:01.414Z,40.10
2023-02-09T12:47:01.272Z,40.06
2023-02-09T12:48:01.263Z,39.43
2023-02-09T12:49:01.279Z,39.31
2023-02-09T12:50:01.232Z,38.76
2023-02-09T12:51:01.227Z,38.12
2023-02-09T12:52:01.210Z,38.04